Time;durP1;ratioP1;P1;durP2;ratioP2;P2;SDS_P1;SDS_P2;PMS_P1;PMS_P2;Temp;Humidity;BMP_temperature;BMP_pressure;BME280_temperature;BME280_humidity;BME280_pressure;Samples;Min_cycle;Max_cycle;Signal;HPM_P1;HPM_P2
2022/01/30 00:00:56;;;;;;;6.80;6.10;;;;;;;2.97;93.07;96909.17;109623;1274;23193;-68
2022/01/30 00:03:24;;;;;;;8.00;6.50;;;;;;;2.97;93.19;96904.65;109585;1275;22455;-67
2022/01/30 00:05:52;;;;;;;7.90;7.10;;;;;;;3.00;93.29;96915.60;109566;1276;23254;-68
2022/01/30 00:08:20;;;;;;;7.70;7.00;;;;;;;3.00;93.54;96904.47;109625;1274;22515;-68
2022/01/30 00:10:55;;;;;;;7.20;6.50;;;;;;;3.00;93.22;96893.30;109628;1274;23628;-67
2022/01/30 00:13:25;;;;;;;7.70;6.90;;;;;;;2.99;93.41;96895.74;109601;1275;22454;-67
2022/01/30 00:15:55;;;;;;;7.20;6.40;;;;;;;2.98;93.61;96891.34;109638;1271;22548;-67
2022/01/30 00:18:47;;;;;;;7.10;6.40;;;;;;;2.99;93.84;96895.33;109612;1274;23160;-67
2022/01/30 00:21:40;;;;;;;7.40;6.60;;;;;;;3.03;93.71;96891.16;109549;1274;22438;-66
2022/01/30 00:24:59;;;;;;;6.60;5.70;;;;;;;3.04;93.77;96884.97;109640;1274;22406;-67
2022/01/30 00:26:57;;;;;;;8.30;5.60;;;;;;;3.06;93.79;96875.58;109488;1276;22641;-67
2022/01/30 00:29:25;;;;;;;6.20;5.60;;;;;;;3.09;93.79;96857.48;109587;1275;22431;-70
2022/01/30 00:31:54;;;;;;;7.10;6.40;;;;;;;3.10;93.47;96854.65;109582;1275;22477;-69
2022/01/30 00:34:43;;;;;;;7.10;6.00;;;;;;;3.14;94.16;96866.44;109494;1275;22547;-68
2022/01/30 00:37:11;;;;;;;6.70;5.50;;;;;;;3.20;93.85;96868.97;109613;1273;23152;-67
2022/01/30 00:39:39;;;;;;;6.80;6.10;;;;;;;3.23;93.43;96874.64;109639;1274;22388;-66
2022/01/30 00:42:22;;;;;;;7.50;5.70;;;;;;;3.24;93.33;96876.17;109594;1275;22521;-68
2022/01/30 00:45:42;;;;;;;6.70;6.10;;;;;;;3.25;93.38;96877.08;109627;1273;22407;-74
2022/01/30 00:48:25;;;;;;;6.70;6.00;;;;;;;3.28;93.43;96865.61;109649;1274;23209;-79
2022/01/30 00:51:07;;;;;;;8.70;7.10;;;;;;;3.30;93.48;96858.09;109578;1275;22998;-75
2022/01/30 00:53:51;;;;;;;7.30;6.10;;;;;;;3.30;93.40;96868.58;109609;1274;22440;-77
2022/01/30 00:56:25;;;;;;;6.40;5.60;;;;;;;3.29;93.47;96864.43;109574;1275;22464;-76
2022/01/30 00:58:53;;;;;;;6.00;5.40;;;;;;;3.31;93.60;96848.96;109554;1274;23200;-73
2022/01/30 01:01:22;;;;;;;7.20;5.80;;;;;;;3.32;93.44;96859.07;109635;1274;22434;-75
2022/01/30 01:03:52;;;;;;;6.40;5.80;;;;;;;3.33;93.35;96855.82;109447;1276;22463;-77
2022/01/30 01:06:21;;;;;;;7.70;5.10;;;;;;;3.35;93.22;96848.31;109618;1274;23637;-84
2022/01/30 01:08:59;;;;;;;7.30;6.60;;;;;;;3.38;93.27;96848.71;109587;1274;23200;-77
2022/01/30 01:12:07;;;;;;;7.70;5.90;;;;;;;3.41;93.18;96873.76;109597;1275;23130;-81
2022/01/30 01:23:32;;;;;;;6.10;5.40;;;;;;;3.47;93.39;96838.36;109648;1274;22482;-72
2022/01/30 01:26:02;;;;;;;6.00;5.40;;;;;;;3.47;93.65;96842.20;109537;1276;22490;-74
2022/01/30 01:28:36;;;;;;;5.70;5.10;;;;;;;3.47;93.68;96841.08;109646;1274;22389;-75
2022/01/30 01:31:09;;;;;;;7.10;5.50;;;;;;;3.43;93.70;96842.55;109632;1274;22479;-77
2022/01/30 01:36:26;;;;;;;6.70;5.60;;;;;;;3.38;93.98;96835.92;109590;1274;22449;-72
2022/01/30 01:39:12;;;;;;;7.30;6.50;;;;;;;3.37;93.98;96830.55;109478;1277;22413;-75
2022/01/30 01:41:42;;;;;;;6.90;6.20;;;;;;;3.35;94.30;96843.55;109525;1274;22489;-75
2022/01/30 01:44:15;;;;;;;6.40;5.80;;;;;;;3.34;94.09;96836.59;109576;1275;22573;-72
2022/01/30 01:46:45;;;;;;;6.90;6.10;;;;;;;3.32;94.79;96833.42;109537;1274;22461;-73
2022/01/30 01:49:20;;;;;;;7.10;6.10;;;;;;;3.33;94.45;96835.85;109587;1275;22503;-73
2022/01/30 01:52:01;;;;;;;7.20;5.80;;;;;;;3.34;94.30;96851.83;109530;1275;23285;-74
2022/01/30 01:54:29;;;;;;;7.90;6.80;;;;;;;3.34;94.02;96858.38;109588;1275;22550;-75
2022/01/30 01:56:58;;;;;;;7.00;5.30;;;;;;;3.36;93.64;96865.66;109645;1273;22453;-72
2022/01/30 01:59:38;;;;;;;6.70;5.80;;;;;;;3.34;93.50;96870.02;109656;1274;23281;-70
2022/01/30 02:02:19;;;;;;;7.70;5.50;;;;;;;3.32;93.34;96873.62;109475;1274;137583;-73
2022/01/30 02:04:47;;;;;;;8.60;5.60;;;;;;;3.31;92.86;96855.41;109501;1276;22582;-74
2022/01/30 02:09:50;;;;;;;9.20;6.10;;;;;;;3.27;91.91;96861.84;109584;1274;22452;-72
2022/01/30 02:12:25;;;;;;;8.40;6.10;;;;;;;3.27;92.11;96846.34;109660;1274;22547;-74
2022/01/30 02:26:10;;;;;;;8.30;5.40;;;;;;;3.19;92.04;96832.49;109489;1276;22476;-78
2022/01/30 02:28:44;;;;;;;;;;;;;;;3.21;91.69;96840.04;109677;1274;22434;-75
2022/01/30 02:31:20;;;;;;;10.70;6.80;;;;;;;3.18;91.59;96836.86;101807;1274;10228783;-71
2022/01/30 02:34:12;;;;;;;8.90;5.00;;;;;;;3.16;91.37;96830.55;109544;1275;23143;-75
2022/01/30 02:36:51;;;;;;;8.40;5.60;;;;;;;3.18;91.25;96839.68;109605;1276;22400;-73
2022/01/30 02:39:25;;;;;;;9.20;5.80;;;;;;;3.22;90.49;96839.04;109245;1276;22462;-66
2022/01/30 02:41:58;;;;;;;11.00;5.80;;;;;;;3.25;88.86;96834.58;109596;1275;22362;-65
2022/01/30 02:44:42;;;;;;;10.40;6.00;;;;;;;3.31;88.89;96819.73;109573;1274;22538;-65
2022/01/30 02:52:41;;;;;;;11.40;5.70;;;;;;;3.36;85.29;96854.15;109627;1274;23459;-65
2022/01/30 02:55:13;;;;;;;12.50;6.40;;;;;;;3.40;86.05;96829.95;109636;1274;22412;-66
2022/01/30 02:57:46;;;;;;;10.60;5.60;;;;;;;3.40;86.48;96826.05;109572;1274;22356;-65
2022/01/30 03:00:14;;;;;;;11.10;6.30;;;;;;;3.42;86.72;96821.57;109591;1274;23201;-65
2022/01/30 03:02:48;;;;;;;12.90;6.10;;;;;;;3.41;85.91;96829.40;109644;1274;23226;-65
2022/01/30 03:05:23;;;;;;;11.60;6.00;;;;;;;3.42;84.78;96826.95;109622;1274;22460;-65
2022/01/30 03:08:08;;;;;;;12.20;5.90;;;;;;;3.43;85.36;96816.01;109543;1274;23144;-65
2022/01/30 03:10:37;;;;;;;13.60;6.70;;;;;;;3.45;85.56;96807.00;109575;1275;23442;-65
2022/01/30 03:13:06;;;;;;;14.20;6.30;;;;;;;3.48;84.39;96802.29;109568;1274;22256;-66
2022/01/30 03:15:35;;;;;;;14.80;6.40;;;;;;;3.52;84.20;96800.61;109655;1273;22420;-65
2022/01/30 03:18:03;;;;;;;11.20;6.40;;;;;;;3.51;83.48;96808.60;109561;1276;22696;-65
2022/01/30 03:20:31;;;;;;;13.90;7.80;;;;;;;3.52;83.77;96807.21;109583;1273;22399;-64
2022/01/30 03:23:04;;;;;;;10.50;5.60;;;;;;;3.51;83.38;96796.04;109639;1274;22535;-64
2022/01/30 03:25:38;;;;;;;12.60;6.60;;;;;;;3.51;82.95;96797.57;109688;1274;22491;-65
2022/01/30 03:28:20;;;;;;;10.20;5.70;;;;;;;3.56;82.67;96806.27;109658;1274;22478;-65
2022/01/30 03:31:04;;;;;;;13.40;6.90;;;;;;;3.56;79.31;96805.15;109604;1274;23079;-64
2022/01/30 03:33:42;;;;;;;14.40;7.20;;;;;;;3.60;80.52;96798.23;109666;1274;22504;-65
2022/01/30 03:36:10;;;;;;;13.40;6.40;;;;;;;3.61;81.04;96790.02;109656;1274;23066;-66
2022/01/30 03:38:45;;;;;;;16.00;7.40;;;;;;;3.60;79.46;96789.57;109573;1274;22472;-65
2022/01/30 03:41:18;;;;;;;14.20;6.70;;;;;;;3.64;79.25;96790.05;109597;1274;22394;-65
2022/01/30 03:43:52;;;;;;;11.30;5.90;;;;;;;3.64;77.69;96800.17;109655;1274;22469;-63
2022/01/30 03:46:26;;;;;;;11.10;6.40;;;;;;;3.65;76.75;96781.52;109610;1274;23076;-65
2022/01/30 03:49:16;;;;;;;15.60;7.20;;;;;;;3.68;77.42;96790.12;109643;1274;22491;-65
2022/01/30 03:51:50;;;;;;;22.70;7.10;;;;;;;3.66;74.63;96805.17;109655;1274;22613;-64
2022/01/30 03:54:38;;;;;;;11.30;5.70;;;;;;;3.70;76.10;96788.36;109670;1274;22390;-64
2022/01/30 03:57:07;;;;;;;13.10;5.80;;;;;;;3.74;74.21;96805.25;109651;1274;23216;-64
2022/01/30 03:59:43;;;;;;;10.90;5.90;;;;;;;3.79;74.84;96810.27;109669;1274;22466;-63
2022/01/30 04:02:15;;;;;;;13.60;5.40;;;;;;;3.83;72.07;96785.39;109603;1274;22592;-64
2022/01/30 04:04:55;;;;;;;13.80;6.00;;;;;;;3.90;71.11;96824.23;109462;1276;22434;-65
2022/01/30 04:07:31;;;;;;;11.50;4.90;;;;;;;3.99;71.94;96798.55;109600;1274;23036;-64
2022/01/30 04:10:18;;;;;;;14.20;5.60;;;;;;;4.00;71.66;96788.69;109566;1274;22444;-64
2022/01/30 04:13:24;;;;;;;12.00;5.70;;;;;;;3.95;70.45;96804.20;109657;1274;22484;-62
2022/01/30 04:16:31;;;;;;;13.80;6.60;;;;;;;3.81;71.84;96809.50;109207;1274;23810;-64
2022/01/30 04:19:18;;;;;;;12.90;6.10;;;;;;;3.69;73.12;96802.90;109578;1274;22448;-64
2022/01/30 04:22:05;;;;;;;12.30;5.30;;;;;;;3.52;74.18;96844.27;109582;1274;22547;-63
2022/01/30 04:24:33;;;;;;;11.40;6.10;;;;;;;3.38;75.58;96817.92;109673;1274;23144;-64
2022/01/30 04:27:20;;;;;;;12.00;5.40;;;;;;;3.16;76.97;96818.45;109573;1274;22436;-64
2022/01/30 04:30:21;;;;;;;9.20;4.70;;;;;;;2.88;78.18;96854.08;109588;1274;22406;-64
2022/01/30 04:33:21;;;;;;;9.50;4.80;;;;;;;2.59;80.19;96846.67;109431;1274;22506;-65
2022/01/30 04:36:12;;;;;;;10.60;4.50;;;;;;;2.25;81.66;96856.14;109659;1274;22473;-66
2022/01/30 04:39:12;;;;;;;10.60;5.30;;;;;;;1.90;82.90;96823.23;109558;1274;22465;-65
2022/01/30 04:42:23;;;;;;;11.10;4.90;;;;;;;1.66;83.78;96798.09;109405;1274;22560;-65
2022/01/30 04:57:57;;;;;;;16.40;6.20;;;;;;;2.05;80.96;96787.95;109606;1274;22475;-64
2022/01/30 05:09:58;;;;;;;11.50;6.40;;;;;;;2.45;79.72;96788.33;109443;1275;22489;-64
2022/01/30 05:12:57;;;;;;;13.80;6.80;;;;;;;2.46;79.61;96784.55;109577;1274;23448;-63
2022/01/30 05:15:49;;;;;;;16.10;8.30;;;;;;;2.47;79.28;96793.38;109590;1274;22489;-63
2022/01/30 05:18:31;;;;;;;14.90;7.90;;;;;;;2.47;79.31;96774.08;109578;1274;22416;-63
2022/01/30 05:21:18;;;;;;;11.60;6.00;;;;;;;2.44;78.99;96775.63;109623;1274;22433;-63
2022/01/30 05:23:59;;;;;;;11.90;5.40;;;;;;;2.44;79.40;96756.86;109513;1274;22545;-63
2022/01/30 05:26:49;;;;;;;14.20;6.30;;;;;;;2.44;79.64;96758.92;109581;1274;23211;-62
2022/01/30 05:29:31;;;;;;;12.30;6.70;;;;;;;2.43;79.40;96747.73;109642;1274;22491;-62
2022/01/30 05:32:17;;;;;;;13.70;6.20;;;;;;;2.41;78.61;96747.14;109656;1274;23073;-62
2022/01/30 05:34:56;;;;;;;8.20;4.90;;;;;;;2.47;78.17;96748.98;109619;1274;22960;-63
2022/01/30 05:37:49;;;;;;;13.00;6.40;;;;;;;2.56;77.72;96719.25;109591;1274;22464;-63
2022/01/30 05:40:36;;;;;;;15.00;6.00;;;;;;;2.64;76.89;96727.55;109637;1274;22504;-63
2022/01/30 05:43:27;;;;;;;14.90;6.60;;;;;;;2.73;75.40;96706.27;109628;1274;22378;-63
2022/01/30 05:46:36;;;;;;;13.60;6.10;;;;;;;2.79;73.56;96721.08;109587;1274;22442;-63
2022/01/30 05:49:25;;;;;;;15.00;6.50;;;;;;;2.87;73.23;96691.80;109650;1274;23145;-63
2022/01/30 05:52:16;;;;;;;8.50;5.90;;;;;;;2.94;73.13;96690.73;109362;1275;22641;-63
2022/01/30 05:54:53;;;;;;;9.70;6.50;;;;;;;3.02;71.97;96699.97;109598;1274;23324;-63
2022/01/30 05:57:22;;;;;;;12.10;6.60;;;;;;;3.11;71.49;96679.45;109571;1274;22425;-64
2022/01/30 05:59:53;;;;;;;10.10;5.50;;;;;;;3.16;70.30;96675.31;109578;1274;23125;-63
2022/01/30 06:02:45;;;;;;;11.60;5.70;;;;;;;3.22;68.86;96682.64;109654;1274;22482;-63
2022/01/30 06:05:16;;;;;;;11.90;5.30;;;;;;;3.29;68.85;96679.02;109590;1274;22509;-63
2022/01/30 06:07:51;;;;;;;11.60;5.50;;;;;;;3.33;68.56;96678.23;109582;1274;22547;-64
2022/01/30 06:10:21;;;;;;;12.80;5.40;;;;;;;3.36;68.83;96668.36;109635;1274;22565;-63
2022/01/30 06:12:50;;;;;;;11.20;6.00;;;;;;;3.38;68.17;96670.26;109570;1274;22529;-63
2022/01/30 06:15:19;;;;;;;14.20;6.00;;;;;;;3.42;67.17;96676.23;109578;1274;22563;-64
2022/01/30 06:17:51;;;;;;;12.20;5.00;;;;;;;3.44;67.09;96678.02;109520;1274;23509;-63
2022/01/30 06:20:37;;;;;;;10.40;4.80;;;;;;;3.48;65.00;96697.00;109647;1274;22888;-63
2022/01/30 06:23:36;;;;;;;8.60;4.90;;;;;;;3.52;65.07;96711.91;109649;1274;22570;-64
2022/01/30 06:26:24;;;;;;;9.80;5.60;;;;;;;3.54;65.42;96694.91;109644;1274;22458;-63
2022/01/30 06:29:10;;;;;;;9.70;5.10;;;;;;;3.55;64.94;96697.77;109648;1274;22621;-63
2022/01/30 06:32:05;;;;;;;11.40;6.50;;;;;;;3.54;65.33;96693.90;109438;1274;23262;-64
2022/01/30 06:34:52;;;;;;;10.90;5.30;;;;;;;3.55;64.51;96699.58;109647;1274;22556;-63
2022/01/30 06:37:33;;;;;;;9.00;4.40;;;;;;;3.55;65.37;96693.81;109510;1276;23275;-64
2022/01/30 06:40:07;;;;;;;12.50;5.70;;;;;;;3.54;64.12;96717.11;109658;1274;23171;-64
2022/01/30 06:43:10;;;;;;;10.40;6.60;;;;;;;3.55;64.38;96700.90;109634;1274;22330;-63
2022/01/30 06:45:57;;;;;;;13.20;5.50;;;;;;;3.54;65.17;96692.45;109638;1274;22438;-63
2022/01/30 06:48:54;;;;;;;12.60;5.50;;;;;;;3.53;64.47;96696.09;109642;1274;23158;-63
2022/01/30 06:51:40;;;;;;;9.90;5.30;;;;;;;3.52;64.65;96683.68;109652;1274;23351;-64
2022/01/30 06:54:28;;;;;;;10.70;5.40;;;;;;;3.53;64.87;96681.75;109643;1274;22553;-64
2022/01/30 06:57:15;;;;;;;8.70;5.40;;;;;;;3.54;64.09;96669.02;109644;1274;23537;-64
2022/01/30 07:00:03;;;;;;;10.80;5.50;;;;;;;3.53;63.25;96673.02;109671;1274;23121;-64
2022/01/30 07:03:03;;;;;;;8.60;5.70;;;;;;;3.57;63.88;96665.84;109336;1274;22486;-64
2022/01/30 07:05:52;;;;;;;13.60;9.00;;;;;;;3.54;63.65;96687.34;109340;1274;22447;-64
2022/01/30 07:08:27;;;;;;;10.90;7.60;;;;;;;3.55;64.39;96675.45;109570;1274;22496;-65
2022/01/30 07:10:55;;;;;;;12.70;7.30;;;;;;;3.54;64.54;96671.95;109678;1274;22473;-64
2022/01/30 07:13:23;;;;;;;14.20;7.80;;;;;;;3.53;64.87;96675.41;109662;1274;23334;-63
2022/01/30 07:15:51;;;;;;;12.50;7.60;;;;;;;3.52;64.13;96675.97;109654;1274;22520;-64
2022/01/30 07:18:19;;;;;;;11.40;6.80;;;;;;;3.52;64.04;96672.45;109654;1274;22430;-65
2022/01/30 07:20:47;;;;;;;10.50;7.10;;;;;;;3.51;64.17;96664.80;109662;1274;22439;-64
2022/01/30 07:23:15;;;;;;;13.40;8.10;;;;;;;3.49;64.73;96652.77;109652;1274;22574;-63
2022/01/30 07:25:44;;;;;;;12.70;6.50;;;;;;;3.47;64.39;96655.62;109666;1274;22456;-64
2022/01/30 07:28:12;;;;;;;14.20;7.00;;;;;;;3.46;64.61;96657.45;109659;1274;22525;-64
2022/01/30 07:30:40;;;;;;;9.80;6.40;;;;;;;3.44;64.24;96671.88;109652;1274;22415;-63
2022/01/30 07:33:08;;;;;;;14.70;7.40;;;;;;;3.45;63.99;96664.38;109670;1274;23250;-63
2022/01/30 07:35:41;;;;;;;15.50;7.20;;;;;;;3.45;64.41;96652.66;109657;1274;22957;-65
2022/01/30 07:38:09;;;;;;;12.50;6.20;;;;;;;3.42;64.74;96656.52;109497;1276;22566;-64
2022/01/30 07:40:38;;;;;;;14.70;7.10;;;;;;;3.40;64.55;96654.73;109663;1274;22276;-64
2022/01/30 07:43:07;;;;;;;14.60;6.90;;;;;;;3.40;64.55;96651.01;109668;1274;22435;-64
2022/01/30 07:45:35;;;;;;;11.90;6.30;;;;;;;3.40;64.43;96642.27;109625;1274;22414;-65
2022/01/30 07:48:04;;;;;;;12.50;6.70;;;;;;;3.40;64.68;96638.38;109587;1276;22975;-65
2022/01/30 07:50:32;;;;;;;13.70;6.60;;;;;;;3.41;64.87;96639.77;109589;1275;22424;-66
2022/01/30 07:52:59;;;;;;;12.70;7.10;;;;;;;3.39;64.31;96649.52;109632;1274;22516;-65
2022/01/30 07:55:27;;;;;;;12.50;6.60;;;;;;;3.36;64.68;96668.77;109644;1274;22463;-65
2022/01/30 07:57:55;;;;;;;11.50;6.70;;;;;;;3.30;65.25;96661.34;109641;1274;23137;-65
2022/01/30 08:00:23;;;;;;;11.20;6.00;;;;;;;3.25;65.42;96668.89;109640;1274;22436;-65
2022/01/30 08:02:51;;;;;;;13.60;6.70;;;;;;;3.26;65.23;96655.24;109637;1274;22464;-66
2022/01/30 08:05:21;;;;;;;13.30;7.70;;;;;;;3.27;65.17;96637.03;109651;1274;22506;-65
2022/01/30 08:07:48;;;;;;;11.70;7.10;;;;;;;3.30;65.33;96678.11;109670;1274;22525;-65
2022/01/30 08:10:16;;;;;;;12.00;7.10;;;;;;;3.31;65.32;96665.54;109659;1274;22433;-64
2022/01/30 08:12:44;;;;;;;10.90;5.80;;;;;;;3.25;66.20;96640.20;109637;1274;22483;-65
2022/01/30 08:15:13;;;;;;;13.00;7.20;;;;;;;3.10;66.77;96640.71;109641;1274;22472;-64
2022/01/30 08:17:41;;;;;;;13.00;7.60;;;;;;;2.99;67.12;96638.75;109654;1274;22462;-64
2022/01/30 08:20:09;;;;;;;14.90;7.40;;;;;;;2.90;66.78;96651.06;109664;1274;23150;-64
2022/01/30 08:22:48;;;;;;;11.00;6.20;;;;;;;2.88;67.48;96648.52;109642;1274;22429;-64
2022/01/30 08:25:19;;;;;;;11.20;7.00;;;;;;;2.85;67.36;96659.98;109646;1274;22443;-65
2022/01/30 08:27:47;;;;;;;13.30;8.00;;;;;;;2.82;67.74;96644.05;109659;1274;22432;-65
2022/01/30 08:30:16;;;;;;;12.70;8.00;;;;;;;2.79;67.77;96683.51;109580;1275;22564;-64
2022/01/30 08:32:49;;;;;;;15.00;8.10;;;;;;;2.78;68.03;96655.00;109649;1274;22550;-64
2022/01/30 08:35:18;;;;;;;10.60;6.60;;;;;;;2.78;68.75;96658.82;109638;1274;22423;-63
2022/01/30 08:37:47;;;;;;;13.10;7.20;;;;;;;2.75;69.55;96679.80;109576;1274;22514;-65
2022/01/30 08:40:19;;;;;;;9.20;6.60;;;;;;;2.72;69.90;96658.82;109560;1275;22474;-65
2022/01/30 08:42:49;;;;;;;11.10;6.70;;;;;;;2.71;69.97;96665.84;109662;1274;22483;-66
2022/01/30 08:45:18;;;;;;;12.90;7.60;;;;;;;2.70;69.93;96646.70;109674;1274;23165;-65
2022/01/30 08:47:48;;;;;;;12.20;7.00;;;;;;;2.71;69.79;96665.16;109648;1274;22448;-65
2022/01/30 08:50:17;;;;;;;15.90;7.70;;;;;;;2.74;69.70;96655.29;109665;1274;22542;-64
2022/01/30 08:52:45;;;;;;;10.10;6.80;;;;;;;2.78;68.98;96658.98;109661;1274;22498;-64
2022/01/30 08:55:16;;;;;;;17.80;7.50;;;;;;;2.85;69.08;96660.30;109658;1274;22454;-65
2022/01/30 08:57:45;;;;;;;8.80;6.10;;;;;;;2.91;69.03;96682.82;109579;1276;22542;-65
2022/01/30 09:00:15;;;;;;;10.40;6.90;;;;;;;2.94;69.25;96652.98;109588;1273;22419;-65
2022/01/30 09:02:43;;;;;;;9.10;6.00;;;;;;;2.94;69.63;96681.46;109607;1275;23304;-64
2022/01/30 09:05:12;;;;;;;12.30;7.00;;;;;;;2.93;70.27;96686.15;109641;1274;22348;-65
2022/01/30 09:07:40;;;;;;;11.20;6.40;;;;;;;2.92;70.28;96683.71;109650;1274;23369;-65
2022/01/30 09:10:11;;;;;;;12.80;8.10;;;;;;;2.90;70.58;96668.77;109661;1274;22775;-65
2022/01/30 09:12:40;;;;;;;11.40;8.80;;;;;;;2.85;71.01;96701.29;109636;1274;22441;-65
2022/01/30 09:15:15;;;;;;;12.70;7.90;;;;;;;2.78;71.46;96696.81;109647;1274;22750;-66
2022/01/30 09:17:44;;;;;;;10.60;6.90;;;;;;;2.74;71.46;96682.05;109657;1274;22440;-66
2022/01/30 09:20:13;;;;;;;11.90;6.80;;;;;;;2.69;71.94;96684.27;109648;1274;22457;-65
2022/01/30 09:22:42;;;;;;;12.60;7.80;;;;;;;2.67;71.98;96666.26;109643;1274;23177;-65
2022/01/30 09:25:10;;;;;;;11.70;7.00;;;;;;;2.63;72.01;96656.93;109663;1274;23083;-66
2022/01/30 09:27:38;;;;;;;14.20;8.20;;;;;;;2.59;72.42;96657.95;109636;1274;22502;-66
2022/01/30 09:30:08;;;;;;;12.10;8.20;;;;;;;2.59;72.57;96656.68;109671;1274;22277;-64
2022/01/30 09:32:39;;;;;;;11.40;7.50;;;;;;;2.57;72.44;96653.61;109650;1274;22464;-65
2022/01/30 09:35:08;;;;;;;14.90;10.10;;;;;;;2.58;72.17;96652.33;109653;1274;23170;-63
2022/01/30 09:37:37;;;;;;;14.60;9.80;;;;;;;2.59;71.94;96670.45;109669;1274;22407;-64
2022/01/30 09:40:07;;;;;;;14.70;8.90;;;;;;;2.63;71.22;96665.95;109652;1272;23103;-65
2022/01/30 09:42:35;;;;;;;14.00;10.40;;;;;;;2.68;70.99;96657.16;109579;1277;22449;-66
2022/01/30 09:45:05;;;;;;;18.50;12.30;;;;;;;2.75;70.48;96668.67;109664;1274;22394;-65
2022/01/30 09:47:33;;;;;;;18.00;13.70;;;;;;;2.80;70.35;96662.80;109670;1274;22744;-67
2022/01/30 09:50:04;;;;;;;17.50;11.50;;;;;;;2.82;70.42;96661.34;109583;1275;22460;-63
2022/01/30 09:52:32;;;;;;;16.00;11.60;;;;;;;2.84;70.13;96651.16;109659;1274;22262;-64
2022/01/30 09:55:00;;;;;;;14.90;9.00;;;;;;;2.88;69.59;96649.38;109648;1274;23115;-64
2022/01/30 09:57:28;;;;;;;13.40;9.50;;;;;;;2.92;69.26;96652.21;109662;1274;22443;-64
2022/01/30 09:59:56;;;;;;;11.40;8.20;;;;;;;2.95;69.19;96641.96;109658;1274;22484;-66
2022/01/30 10:02:26;;;;;;;13.50;8.90;;;;;;;3.02;68.69;96670.13;109569;1275;22491;-65
2022/01/30 10:04:54;;;;;;;13.90;8.40;;;;;;;3.08;67.83;96629.93;109669;1274;22566;-68
2022/01/30 10:07:40;;;;;;;14.50;8.80;;;;;;;3.13;67.55;96660.23;109535;1274;137381;-66
2022/01/30 10:10:11;;;;;;;14.90;8.60;;;;;;;3.18;66.13;96642.45;109647;1274;22395;-63
2022/01/30 10:13:07;;;;;;;13.10;8.50;;;;;;;3.24;66.87;96632.92;109662;1274;22505;-64
2022/01/30 10:16:11;;;;;;;13.40;8.60;;;;;;;3.27;66.24;96644.17;109681;1274;22326;-64
2022/01/30 10:18:44;;;;;;;13.30;7.80;;;;;;;3.31;66.06;96656.17;108827;1281;22507;-63
2022/01/30 10:21:21;;;;;;;15.70;9.20;;;;;;;3.32;66.20;96641.19;108821;1282;22599;-64
2022/01/30 10:23:49;;;;;;;15.70;8.00;;;;;;;3.32;65.96;96634.15;108829;1281;22499;-64
2022/01/30 10:26:29;;;;;;;14.50;7.40;;;;;;;3.33;65.49;96640.81;108756;1282;23140;-64
2022/01/30 10:29:17;;;;;;;15.50;8.70;;;;;;;3.34;65.02;96636.95;108759;1282;22553;-65
2022/01/30 10:32:04;;;;;;;15.70;8.70;;;;;;;3.35;65.20;96636.84;108822;1281;23235;-63
2022/01/30 10:34:35;;;;;;;17.80;10.00;;;;;;;3.35;66.17;96639.29;108832;1281;22442;-64
2022/01/30 10:37:15;;;;;;;15.20;9.30;;;;;;;3.34;66.24;96642.27;108766;1282;22454;-64
2022/01/30 10:40:05;;;;;;;15.00;8.60;;;;;;;3.32;66.56;96643.79;108846;1282;22486;-64
2022/01/30 10:42:41;;;;;;;17.60;9.60;;;;;;;3.30;66.59;96642.11;108806;1281;22497;-64
2022/01/30 10:45:21;;;;;;;15.30;8.80;;;;;;;3.25;66.74;96639.77;108841;1281;23168;-63
2022/01/30 10:47:49;;;;;;;15.40;8.60;;;;;;;3.22;67.09;96662.77;108839;1281;23146;-64
2022/01/30 10:50:21;;;;;;;13.20;8.40;;;;;;;3.16;67.37;96690.80;108773;1282;22497;-63
2022/01/30 10:52:59;;;;;;;16.10;8.90;;;;;;;3.11;68.23;96699.84;109117;1274;22508;-63
2022/01/30 10:55:34;;;;;;;15.80;8.70;;;;;;;2.99;69.13;96712.02;109630;1274;22462;-63
2022/01/30 10:58:05;;;;;;;15.30;9.40;;;;;;;2.82;70.62;96713.81;109645;1274;22467;-64
2022/01/30 11:00:46;;;;;;;15.00;9.50;;;;;;;2.71;71.00;96713.45;109643;1274;22397;-64
2022/01/30 11:03:50;;;;;;;16.70;10.60;;;;;;;2.53;73.13;96709.96;109529;1274;137630;-63
2022/01/30 11:06:19;;;;;;;18.90;9.20;;;;;;;2.25;74.88;96717.03;109646;1273;22518;-63
2022/01/30 11:08:50;;;;;;;14.70;9.20;;;;;;;2.02;76.40;96715.23;109660;1274;23292;-62
2022/01/30 11:19:22;;;;;;;16.10;9.70;;;;;;;2.04;76.81;96723.66;109635;1274;22456;-63
2022/01/30 11:21:53;;;;;;;18.20;13.00;;;;;;;2.14;76.86;96745.30;109640;1274;23228;-65
2022/01/30 11:24:25;;;;;;;18.20;12.60;;;;;;;2.15;77.56;96756.94;109654;1274;22543;-65
2022/01/30 11:26:53;;;;;;;17.80;10.50;;;;;;;2.01;79.11;96766.94;109648;1274;22440;-65
2022/01/30 11:29:22;;;;;;;13.90;8.20;;;;;;;1.82;78.62;96732.62;109636;1274;22550;-64
2022/01/30 11:31:50;;;;;;;15.40;10.30;;;;;;;1.70;80.74;96739.23;109486;1276;22632;-65
2022/01/30 11:34:19;;;;;;;16.50;10.20;;;;;;;1.59;81.15;96734.27;109637;1274;22528;-63
2022/01/30 11:36:48;;;;;;;15.80;10.80;;;;;;;1.52;80.98;96724.58;109648;1274;22531;-65
2022/01/30 11:39:20;;;;;;;18.60;11.00;;;;;;;1.50;80.88;96730.11;109652;1274;23249;-64
2022/01/30 11:42:37;;;;;;;18.70;11.40;;;;;;;1.47;82.13;96722.79;109631;1274;22403;-64
2022/01/30 11:45:08;;;;;;;16.20;8.90;;;;;;;1.45;81.76;96727.77;108906;1276;22460;-64
2022/01/30 11:48:03;;;;;;;16.60;11.40;;;;;;;1.46;81.97;96719.06;109655;1274;23157;-65
2022/01/30 11:50:33;;;;;;;20.00;13.60;;;;;;;1.50;82.91;96718.73;109655;1274;22464;-64
2022/01/30 11:53:04;;;;;;;21.20;13.00;;;;;;;1.53;82.52;96719.10;109598;1275;22453;-63
2022/01/30 11:56:01;;;;;;;17.90;12.60;;;;;;;1.59;81.57;96726.32;109663;1273;22497;-64
2022/01/30 11:58:29;;;;;;;19.10;11.60;;;;;;;1.66;81.40;96715.67;109649;1274;22466;-64
2022/01/30 12:01:22;;;;;;;17.10;11.60;;;;;;;1.70;81.86;96724.70;109456;1276;23294;-63
2022/01/30 12:04:00;;;;;;;15.50;11.40;;;;;;;1.74;82.08;96719.45;109525;1274;22615;-64
2022/01/30 12:06:31;;;;;;;18.50;11.90;;;;;;;1.79;82.21;96748.03;109641;1274;22535;-64
2022/01/30 12:09:03;;;;;;;20.20;11.90;;;;;;;1.85;82.09;96708.70;109624;1273;22462;-65
2022/01/30 12:11:37;;;;;;;22.10;12.40;;;;;;;1.86;82.28;96701.21;109578;1275;22417;-63
2022/01/30 12:14:06;;;;;;;18.40;13.40;;;;;;;1.86;82.12;96706.90;109415;1277;22450;-64
2022/01/30 12:17:03;;;;;;;20.00;11.60;;;;;;;1.86;82.05;96729.11;109486;1276;23294;-65
2022/01/30 12:19:31;;;;;;;19.50;14.10;;;;;;;1.89;81.71;96699.39;109529;1275;23625;-62
2022/01/30 12:22:18;;;;;;;28.30;19.90;;;;;;;1.92;81.69;96705.70;109638;1274;22256;-62
2022/01/30 12:24:49;;;;;;;24.90;17.80;;;;;;;1.95;81.24;96708.02;109630;1273;22580;-63
2022/01/30 12:27:18;;;;;;;18.80;12.10;;;;;;;2.01;80.71;96712.10;109645;1274;22481;-63
2022/01/30 12:29:51;;;;;;;22.20;18.80;;;;;;;2.08;80.22;96701.23;109651;1274;23170;-64
2022/01/30 12:32:22;;;;;;;22.10;11.30;;;;;;;2.14;79.82;96727.13;109467;1275;23683;-63
2022/01/30 12:34:57;;;;;;;21.30;12.90;;;;;;;2.21;79.19;96712.85;109622;1274;22468;-63
2022/01/30 12:37:31;;;;;;;14.50;10.10;;;;;;;2.27;78.82;96700.54;109606;1276;22439;-63
2022/01/30 12:40:21;;;;;;;24.90;14.20;;;;;;;2.33;78.12;96715.50;109594;1275;22408;-61
2022/01/30 12:42:49;;;;;;;20.80;13.10;;;;;;;2.42;77.07;96739.96;109583;1275;23166;-64
2022/01/30 12:45:18;;;;;;;14.10;9.40;;;;;;;2.49;76.86;96726.64;109596;1276;22366;-64
2022/01/30 12:47:52;;;;;;;17.50;9.50;;;;;;;2.52;76.57;96715.61;109629;1274;22441;-64
2022/01/30 12:50:20;;;;;;;;;;;;;;;2.55;76.46;96730.73;109674;1274;23152;-63
2022/01/30 12:52:52;;;;;;;18.60;9.30;;;;;;;2.55;76.08;96713.83;109664;1274;23086;-63
2022/01/30 12:55:22;;;;;;;14.60;8.40;;;;;;;2.55;76.15;96760.52;109629;1274;22894;-63
2022/01/30 12:57:54;;;;;;;15.10;9.10;;;;;;;2.55;76.34;96750.69;109629;1274;22413;-64
2022/01/30 13:00:23;;;;;;;18.80;9.60;;;;;;;2.57;76.21;96764.41;109577;1274;22429;-66
2022/01/30 13:03:00;;;;;;;17.20;8.90;;;;;;;2.57;76.35;96753.02;109599;1275;22461;-63
2022/01/30 13:05:50;;;;;;;16.00;9.10;;;;;;;2.56;76.27;96776.58;109580;1275;22431;-63
2022/01/30 13:08:52;;;;;;;15.50;9.00;;;;;;;2.57;75.54;96765.35;109605;1274;22482;-75
2022/01/30 13:11:22;;;;;;;20.50;9.80;;;;;;;2.61;75.64;96753.36;109616;1275;22429;-64